createdAt,value
2019-04-20T00:00:41.702Z,981.65
2019-04-20T00:01:37.254Z,981.65
2019-04-20T00:02:37.742Z,981.61
2019-04-20T00:03:41.714Z,981.67
2019-04-20T00:04:37.332Z,981.62
2019-04-20T00:05:37.258Z,981.56
2019-04-20T00:06:42.938Z,981.70
2019-04-20T00:07:37.631Z,981.67
2019-04-20T00:08:39.449Z,981.67
2019-04-20T00:09:39.975Z,981.65
2019-04-20T00:10:47.598Z,981.65
2019-04-20T00:11:49.336Z,981.60
2019-04-20T00:12:54.573Z,981.64
2019-04-20T00:13:47.681Z,981.63
2019-04-20T00:14:38.845Z,981.63
2019-04-20T00:15:36.907Z,981.58
2019-04-20T00:16:37.837Z,981.62
2019-04-20T00:17:39.406Z,981.59
2019-04-20T00:18:43.085Z,981.59
2019-04-20T00:19:42.510Z,981.60
2019-04-20T00:20:38.655Z,981.57
2019-04-20T00:21:42.644Z,981.57
2019-04-20T00:22:42.511Z,981.57
2019-04-20T00:23:40.474Z,981.55
2019-04-20T00:24:38.487Z,981.64
2019-04-20T00:25:48.542Z,981.62
2019-04-20T00:27:02.036Z,981.55
2019-04-20T00:27:55.714Z,981.53
2019-04-20T00:28:55.971Z,981.56
2019-04-20T00:29:54.233Z,981.58
2019-04-20T00:30:55.728Z,981.58
2019-04-20T00:31:49.179Z,981.58
2019-04-20T00:32:50.190Z,981.51
2019-04-20T00:33:48.411Z,981.54
2019-04-20T00:34:38.989Z,981.56
2019-04-20T00:35:36.314Z,981.50
2019-04-20T00:36:36.931Z,981.48
2019-04-20T00:37:36.255Z,981.48
2019-04-20T00:38:45.317Z,981.54
2019-04-20T00:39:36.215Z,981.50
2019-04-20T00:40:37.274Z,981.50
2019-04-20T00:41:44.052Z,981.49
2019-04-20T00:42:43.339Z,981.49
2019-04-20T00:43:38.777Z,981.52
2019-04-20T00:44:39.539Z,981.47
2019-04-20T00:45:40.099Z,981.49
2019-04-20T00:46:49.796Z,981.46
2019-04-20T00:47:47.746Z,981.48
2019-04-20T00:48:46.234Z,981.46
2019-04-20T00:49:48.391Z,981.48
2019-04-20T00:50:54.258Z,981.48
2019-04-20T00:51:51.574Z,981.53
2019-04-20T00:52:50.874Z,981.45
2019-04-20T00:53:39.721Z,981.46
2019-04-20T00:54:36.935Z,981.47
2019-04-20T00:55:36.094Z,981.48
2019-04-20T00:56:37.004Z,981.50
2019-04-20T00:57:46.591Z,981.53
2019-04-20T00:58:50.598Z,981.42
2019-04-20T01:00:03.587Z,981.50
2019-04-20T01:00:59.965Z,981.51
2019-04-20T01:01:52.320Z,981.44
2019-04-20T01:02:49.570Z,981.47
2019-04-20T01:03:49.698Z,981.44
2019-04-20T01:04:56.436Z,981.44
2019-04-20T01:05:58.195Z,981.42
2019-04-20T01:06:51.577Z,981.43
2019-04-20T01:07:42.028Z,981.40
2019-04-20T01:08:36.041Z,981.43
2019-04-20T01:09:35.521Z,981.45
2019-04-20T01:10:41.630Z,981.43
2019-04-20T01:11:40.042Z,981.45
2019-04-20T01:12:38.773Z,981.44
2019-04-20T01:13:43.506Z,981.42
2019-04-20T01:14:43.444Z,981.43
2019-04-20T01:15:43.792Z,981.37
2019-04-20T01:16:44.008Z,981.39
2019-04-20T01:17:37.795Z,981.37
2019-04-20T01:18:35.311Z,981.37
2019-04-20T01:19:35.285Z,981.37
2019-04-20T01:20:36.482Z,981.34
2019-04-20T01:21:36.736Z,981.35
2019-04-20T01:22:40.246Z,981.33
2019-04-20T01:23:43.782Z,981.36
2019-04-20T01:24:46.974Z,981.33
2019-04-20T01:26:43.726Z,981.35
2019-04-20T01:27:50.103Z,981.29
2019-04-20T01:29:39.276Z,981.28
2019-04-20T01:30:37.584Z,981.29
2019-04-20T01:32:34.305Z,981.27
2019-04-20T01:33:37.215Z,981.31
2019-04-20T01:35:25.185Z,981.30
2019-04-20T01:36:37.020Z,981.28
2019-04-20T01:38:22.373Z,981.28
2019-04-20T01:39:23.984Z,981.36
2019-04-20T01:40:59.142Z,981.30
2019-04-20T01:41:58.411Z,981.30
2019-04-20T01:44:05.072Z,981.30
2019-04-20T01:45:10.325Z,981.27
2019-04-20T01:47:01.254Z,981.31
2019-04-20T01:47:54.087Z,981.31
2019-04-20T01:49:47.764Z,981.25
2019-04-20T01:50:54.837Z,981.25
2019-04-20T01:52:51.769Z,981.28
2019-04-20T01:53:50.489Z,981.20
2019-04-20T01:56:07.242Z,981.23
2019-04-20T01:56:58.048Z,981.28
2019-04-20T01:58:58.288Z,981.28
2019-04-20T01:59:55.270Z,981.25
2019-04-20T02:00:46.026Z,981.26
2019-04-20T02:01:45.604Z,981.22
2019-04-20T02:02:50.445Z,981.24
2019-04-20T02:03:48.540Z,981.27
2019-04-20T02:04:48.284Z,981.28
2019-04-20T02:05:53.072Z,981.26
2019-04-20T02:06:50.432Z,981.25
2019-04-20T02:07:48.987Z,981.23
2019-04-20T02:08:44.182Z,981.23
2019-04-20T02:09:51.284Z,981.26
2019-04-20T02:10:49.965Z,981.27
2019-04-20T02:11:47.349Z,981.20
2019-04-20T02:12:49.047Z,981.22
2019-04-20T02:13:49.865Z,981.21
2019-04-20T02:14:49.684Z,981.21
2019-04-20T02:15:48.567Z,981.27
2019-04-20T02:16:49.218Z,981.21
2019-04-20T02:17:57.946Z,981.21
2019-04-20T02:19:03.050Z,981.22
2019-04-20T02:20:05.450Z,981.25
2019-04-20T02:21:01.298Z,981.28
2019-04-20T02:21:59.091Z,981.29
2019-04-20T02:23:01.629Z,981.28
2019-04-20T02:23:51.011Z,981.29
2019-04-20T02:24:44.812Z,981.29
2019-04-20T02:25:44.013Z,981.31
2019-04-20T02:26:45.006Z,981.31
2019-04-20T02:27:49.675Z,981.31
2019-04-20T02:29:07.969Z,981.30
2019-04-20T02:30:07.564Z,981.30
2019-04-20T02:33:32.317Z,981.29
2019-04-20T02:34:15.714Z,981.33
2019-04-20T02:36:21.092Z,981.35
2019-04-20T02:37:39.535Z,981.32
2019-04-20T02:38:23.391Z,981.34
2019-04-20T02:40:16.085Z,981.27
2019-04-20T02:41:36.173Z,981.28
2019-04-20T02:42:19.400Z,981.24
2019-04-20T02:43:41.981Z,981.25
2019-04-20T02:44:30.589Z,981.23
2019-04-20T02:46:14.897Z,981.21
2019-04-20T02:48:13.907Z,981.22
2019-04-20T02:49:34.110Z,981.23
2019-04-20T02:51:13.524Z,981.27
2019-04-20T02:55:15.367Z,981.33
2019-04-20T02:56:29.238Z,981.32
2019-04-20T02:57:34.022Z,981.32
2019-04-20T02:59:47.313Z,981.28
2019-04-20T03:01:05.134Z,981.30
2019-04-20T03:02:00.310Z,981.25
2019-04-20T03:02:56.113Z,981.28
2019-04-20T03:03:48.920Z,981.27
2019-04-20T03:04:51.271Z,981.24
2019-04-20T03:05:58.309Z,981.26
2019-04-20T03:06:59.807Z,981.22
2019-04-20T03:08:02.268Z,981.20
2019-04-20T03:09:06.410Z,981.16
2019-04-20T03:10:04.026Z,981.21
2019-04-20T03:11:09.391Z,981.23
2019-04-20T03:13:03.978Z,981.21
2019-04-20T03:14:05.490Z,981.20
2019-04-20T03:16:03.506Z,981.21
2019-04-20T03:17:03.269Z,981.20
2019-04-20T03:18:03.368Z,981.26
2019-04-20T03:19:01.279Z,981.20
2019-04-20T03:19:55.554Z,981.19
2019-04-20T03:21:08.212Z,981.18
2019-04-20T03:22:09.149Z,981.19
2019-04-20T03:24:11.744Z,981.15
2019-04-20T03:25:05.141Z,981.15
2019-04-20T03:26:09.538Z,981.17
2019-04-20T03:27:00.786Z,981.21
2019-04-20T03:28:05.307Z,981.27
2019-04-20T03:28:56.697Z,981.25
2019-04-20T03:30:07.834Z,981.31
2019-04-20T03:31:33.728Z,981.26
2019-04-20T03:32:28.210Z,981.28
2019-04-20T03:33:31.349Z,981.33
2019-04-20T03:34:23.156Z,981.30
2019-04-20T03:36:16.240Z,981.30
2019-04-20T03:37:08.732Z,981.30
2019-04-20T03:38:06.034Z,981.29
2019-04-20T03:39:03.948Z,981.30
2019-04-20T03:39:56.699Z,981.28
2019-04-20T03:40:56.870Z,981.34
2019-04-20T03:41:46.720Z,981.30
2019-04-20T03:42:42.877Z,981.33
2019-04-20T03:43:41.819Z,981.32
2019-04-20T03:44:50.443Z,981.32
2019-04-20T03:45:51.814Z,981.32
2019-04-20T03:46:47.870Z,981.31
2019-04-20T03:47:52.803Z,981.34
2019-04-20T03:48:59.732Z,981.30
2019-04-20T03:50:06.209Z,981.29
2019-04-20T03:51:02.108Z,981.29
2019-04-20T03:52:02.531Z,981.33
2019-04-20T03:53:07.332Z,981.34
2019-04-20T03:54:01.259Z,981.33
2019-04-20T03:54:52.267Z,981.31
2019-04-20T03:55:57.716Z,981.35
2019-04-20T03:57:09.194Z,981.37
2019-04-20T03:58:03.495Z,981.36
2019-04-20T03:58:55.433Z,981.37
2019-04-20T04:00:04.655Z,981.37
2019-04-20T04:00:54.571Z,981.33
2019-04-20T04:02:28.565Z,981.38
2019-04-20T04:03:12.467Z,981.38
2019-04-20T04:04:05.259Z,981.38
2019-04-20T04:05:03.296Z,981.41
2019-04-20T04:05:57.379Z,981.39
2019-04-20T04:06:47.023Z,981.39
2019-04-20T04:07:46.784Z,981.34
2019-04-20T04:08:55.870Z,981.38
2019-04-20T04:10:02.973Z,981.38
2019-04-20T04:11:03.187Z,981.37
2019-04-20T04:11:56.041Z,981.38
2019-04-20T04:12:44.797Z,981.39
2019-04-20T04:13:41.911Z,981.38
2019-04-20T04:14:41.062Z,981.41
2019-04-20T04:15:47.940Z,981.39
2019-04-20T04:16:47.766Z,981.38
2019-04-20T04:17:44.736Z,981.40
2019-04-20T04:18:45.570Z,981.40
2019-04-20T04:19:51.187Z,981.35
2019-04-20T04:20:49.263Z,981.42
2019-04-20T04:21:58.286Z,981.42
2019-04-20T04:23:00.420Z,981.41
2019-04-20T04:23:59.965Z,981.40
2019-04-20T04:25:03.816Z,981.41
2019-04-20T04:26:47.929Z,981.42
2019-04-20T04:27:54.843Z,981.41
2019-04-20T04:29:46.680Z,981.42
2019-04-20T04:30:43.079Z,981.42
2019-04-20T04:33:09.057Z,981.41
2019-04-20T04:35:26.775Z,981.47
2019-04-20T04:36:30.182Z,981.43
2019-04-20T04:38:42.516Z,981.45
2019-04-20T04:39:31.266Z,981.45
2019-04-20T04:41:36.790Z,981.50
2019-04-20T04:42:36.738Z,981.49
2019-04-20T04:44:11.243Z,981.44
2019-04-20T04:45:04.224Z,981.45
2019-04-20T04:46:59.394Z,981.43
2019-04-20T04:47:53.567Z,981.47
2019-04-20T04:49:55.232Z,981.43
2019-04-20T04:50:54.514Z,981.38
2019-04-20T04:52:52.259Z,981.40
2019-04-20T04:53:52.481Z,981.42
2019-04-20T04:55:43.939Z,981.42
2019-04-20T04:56:35.444Z,981.43
2019-04-20T04:58:38.633Z,981.45
2019-04-20T04:59:31.623Z,981.45
2019-04-20T05:01:28.771Z,981.50
2019-04-20T05:02:34.765Z,981.49
2019-04-20T05:04:40.501Z,981.49
2019-04-20T05:05:35.913Z,981.49
2019-04-20T05:07:24.434Z,981.51
2019-04-20T05:08:18.792Z,981.53
2019-04-20T05:10:03.870Z,981.55
2019-04-20T05:11:04.780Z,981.54
2019-04-20T05:12:56.748Z,981.58
2019-04-20T05:14:03.084Z,981.62
2019-04-20T05:16:03.501Z,981.53
2019-04-20T05:17:07.660Z,981.59
2019-04-20T05:19:09.389Z,981.61
2019-04-20T05:20:02.658Z,981.63
2019-04-20T05:21:07.411Z,981.63
2019-04-20T05:22:19.422Z,981.61
2019-04-20T05:23:00.331Z,981.69
2019-04-20T05:24:00.766Z,981.61
2019-04-20T05:25:08.386Z,981.63
2019-04-20T05:26:12.540Z,981.61
2019-04-20T05:27:11.200Z,981.63
2019-04-20T05:28:01.811Z,981.57
2019-04-20T05:28:53.587Z,981.61
2019-04-20T05:29:44.745Z,981.61
2019-04-20T05:30:48.581Z,981.60
2019-04-20T05:31:51.776Z,981.62
2019-04-20T05:32:54.402Z,981.65
2019-04-20T05:34:08.095Z,981.64
2019-04-20T05:35:05.088Z,981.64
2019-04-20T05:36:00.921Z,981.61
2019-04-20T05:37:04.682Z,981.59
2019-04-20T05:38:07.038Z,981.65
2019-04-20T05:39:11.703Z,981.64
2019-04-20T05:40:05.845Z,981.64
2019-04-20T05:41:04.648Z,981.61
2019-04-20T05:42:03.251Z,981.60
2019-04-20T05:42:59.484Z,981.62
2019-04-20T05:43:59.678Z,981.62
2019-04-20T05:45:11.285Z,981.61
2019-04-20T05:47:06.972Z,981.64
2019-04-20T05:48:02.232Z,981.58
2019-04-20T05:49:53.855Z,981.59
2019-04-20T05:50:56.656Z,981.60
2019-04-20T05:52:56.216Z,981.65
2019-04-20T05:53:52.002Z,981.69
2019-04-20T05:55:40.181Z,981.65
2019-04-20T05:56:40.241Z,981.63
2019-04-20T05:58:34.406Z,981.70
2019-04-20T06:00:03.601Z,981.65
2019-04-20T06:01:35.018Z,981.64
2019-04-20T06:02:51.255Z,981.64
2019-04-20T06:04:46.101Z,981.70
2019-04-20T06:05:38.896Z,981.66
2019-04-20T06:07:37.398Z,981.61
2019-04-20T06:08:43.844Z,981.66
2019-04-20T06:10:27.589Z,981.71
2019-04-20T06:11:24.084Z,981.63
2019-04-20T06:12:20.102Z,981.62
2019-04-20T06:14:08.020Z,981.69
2019-04-20T06:15:12.760Z,981.64
2019-04-20T06:16:12.938Z,981.69
2019-04-20T06:17:23.444Z,981.67
2019-04-20T06:18:17.682Z,981.70
2019-04-20T06:19:26.292Z,981.72
2019-04-20T06:20:21.553Z,981.73
2019-04-20T06:21:25.043Z,981.71
2019-04-20T06:22:28.545Z,981.74
2019-04-20T06:23:24.472Z,981.72
2019-04-20T06:24:26.498Z,981.73
2019-04-20T06:25:39.320Z,981.74
2019-04-20T06:27:25.867Z,981.74
2019-04-20T06:28:19.218Z,981.80
2019-04-20T06:29:15.936Z,981.73
2019-04-20T06:30:14.019Z,981.76
2019-04-20T06:31:26.509Z,981.80
2019-04-20T06:32:28.778Z,981.78
2019-04-20T06:33:37.166Z,981.81
2019-04-20T06:35:36.926Z,981.80
2019-04-20T06:36:29.406Z,981.84
2019-04-20T06:37:19.381Z,981.90
2019-04-20T06:38:35.272Z,981.83
2019-04-20T06:39:26.297Z,981.87
2019-04-20T06:40:36.429Z,981.88
2019-04-20T06:41:32.090Z,981.87
2019-04-20T06:42:18.100Z,981.87
2019-04-20T06:43:19.733Z,981.83
2019-04-20T06:44:27.622Z,981.89
2019-04-20T06:45:28.129Z,981.98
2019-04-20T06:46:22.718Z,981.96
2019-04-20T06:47:19.515Z,982.01
2019-04-20T06:48:29.128Z,982.01
2019-04-20T06:49:33.249Z,982.08
2019-04-20T06:50:18.675Z,982.12
2019-04-20T06:51:22.428Z,982.08
2019-04-20T06:52:25.828Z,982.06
2019-04-20T06:53:23.923Z,982.07
2019-04-20T06:54:10.346Z,982.10
2019-04-20T06:55:14.486Z,982.09
2019-04-20T06:56:24.770Z,982.04
2019-04-20T06:57:21.094Z,982.05
2019-04-20T06:58:33.524Z,982.07
2019-04-20T06:59:26.268Z,982.01
2019-04-20T07:00:36.886Z,982.06
2019-04-20T07:01:19.097Z,982.09
2019-04-20T07:03:40.917Z,982.09
2019-04-20T07:04:40.147Z,982.03
2019-04-20T07:05:22.373Z,982.06
2019-04-20T07:06:35.273Z,982.08
2019-04-20T07:07:38.802Z,982.13
2019-04-20T07:08:35.040Z,982.17
2019-04-20T07:09:21.722Z,982.13
2019-04-20T07:10:38.038Z,982.15
2019-04-20T07:11:25.056Z,982.22
2019-04-20T07:12:17.027Z,982.25
2019-04-20T07:13:14.322Z,982.28
2019-04-20T07:14:06.661Z,982.22
2019-04-20T07:15:21.361Z,982.24
2019-04-20T07:16:26.758Z,982.25
2019-04-20T07:17:34.958Z,982.27
2019-04-20T07:18:24.608Z,982.30
2019-04-20T07:19:20.401Z,982.33
2019-04-20T07:20:16.017Z,982.28
2019-04-20T07:21:23.003Z,982.30
2019-04-20T07:22:29.808Z,982.33
2019-04-20T07:24:26.786Z,982.34
2019-04-20T07:25:23.124Z,982.29
2019-04-20T07:26:24.373Z,982.33
2019-04-20T07:27:19.785Z,982.36
2019-04-20T07:28:27.494Z,982.38
2019-04-20T07:29:26.063Z,982.37
2019-04-20T07:30:16.263Z,982.34
2019-04-20T07:31:19.038Z,982.34
2019-04-20T07:32:15.334Z,982.33
2019-04-20T07:33:21.495Z,982.35
2019-04-20T07:34:22.894Z,982.39
2019-04-20T07:35:19.749Z,982.40
2019-04-20T07:36:27.548Z,982.41
2019-04-20T07:39:21.621Z,982.39
2019-04-20T07:40:23.300Z,982.41
2019-04-20T07:41:25.938Z,982.33
2019-04-20T07:42:22.995Z,982.37
2019-04-20T07:43:17.430Z,982.39
2019-04-20T07:44:29.598Z,982.37
2019-04-20T07:45:26.111Z,982.40
2019-04-20T07:46:37.644Z,982.40
2019-04-20T07:47:22.646Z,982.44
2019-04-20T07:48:21.246Z,982.44
2019-04-20T07:49:18.133Z,982.38
2019-04-20T07:50:13.284Z,982.41
2019-04-20T07:51:08.920Z,982.39
2019-04-20T07:51:59.586Z,982.39
2019-04-20T07:53:18.557Z,982.36
2019-04-20T07:54:23.003Z,982.37
2019-04-20T07:55:34.721Z,982.37
2019-04-20T07:56:23.540Z,982.41
2019-04-20T07:57:21.529Z,982.35
2019-04-20T07:58:13.412Z,982.35
2019-04-20T07:59:13.925Z,982.34
2019-04-20T08:00:32.147Z,982.36
2019-04-20T08:01:30.178Z,982.29
2019-04-20T08:02:23.764Z,982.29
2019-04-20T08:03:23.659Z,982.29
2019-04-20T08:04:17.446Z,982.23
2019-04-20T08:05:10.716Z,982.24
2019-04-20T08:06:08.890Z,982.24
2019-04-20T08:07:03.540Z,982.22
2019-04-20T08:08:18.073Z,982.28
2019-04-20T08:09:16.778Z,982.28
2019-04-20T08:10:04.423Z,982.25
2019-04-20T08:12:29.310Z,982.22
2019-04-20T08:13:30.553Z,982.21
2019-04-20T08:14:25.959Z,982.17
2019-04-20T08:15:34.147Z,982.22
2019-04-20T08:16:24.409Z,982.21
2019-04-20T08:17:35.029Z,982.23
2019-04-20T08:18:19.456Z,982.19
2019-04-20T08:19:16.350Z,982.23
2019-04-20T08:20:19.145Z,982.25
2019-04-20T08:21:24.285Z,982.22
2019-04-20T08:22:21.441Z,982.29
2019-04-20T08:23:17.579Z,982.25
2019-04-20T08:24:16.996Z,982.26
2019-04-20T08:25:08.789Z,982.25
2019-04-20T08:26:09.078Z,982.29
2019-04-20T08:27:04.288Z,982.27
2019-04-20T08:27:59.118Z,982.25
2019-04-20T08:29:03.833Z,982.24
2019-04-20T08:30:13.391Z,982.23
2019-04-20T08:31:14.206Z,982.25
2019-04-20T08:32:20.143Z,982.23
2019-04-20T08:33:21.058Z,982.28
2019-04-20T08:35:22.789Z,982.22
2019-04-20T08:36:23.361Z,982.23
2019-04-20T08:37:18.568Z,982.27
2019-04-20T08:39:28.183Z,982.23
2019-04-20T08:40:20.827Z,982.26
2019-04-20T08:41:18.245Z,982.27
2019-04-20T08:42:16.328Z,982.27
2019-04-20T08:43:29.970Z,982.25
2019-04-20T08:44:41.254Z,982.22
2019-04-20T08:45:30.720Z,982.19
2019-04-20T08:46:20.437Z,982.21
2019-04-20T08:47:30.457Z,982.22
2019-04-20T08:48:25.722Z,982.20
2019-04-20T08:49:26.334Z,982.16
2019-04-20T08:50:27.091Z,982.17
2019-04-20T08:51:19.961Z,982.16
2019-04-20T08:52:44.628Z,982.23
2019-04-20T08:53:42.069Z,982.26
2019-04-20T08:54:16.982Z,982.21
2019-04-20T08:55:16.590Z,982.23
2019-04-20T08:56:10.953Z,982.27
2019-04-20T08:57:01.350Z,982.20
2019-04-20T08:57:59.850Z,982.22
2019-04-20T08:58:59.623Z,982.28
2019-04-20T09:00:02.551Z,982.25
2019-04-20T09:01:03.586Z,982.30
2019-04-20T09:02:06.035Z,982.36
2019-04-20T09:03:05.672Z,982.36
2019-04-20T09:04:06.576Z,982.38
2019-04-20T09:05:04.813Z,982.40
2019-04-20T09:06:06.717Z,982.49
2019-04-20T09:07:05.606Z,982.55
2019-04-20T09:08:08.110Z,982.45
2019-04-20T09:09:29.324Z,982.44
2019-04-20T09:10:24.265Z,982.52
2019-04-20T09:11:15.648Z,982.52
2019-04-20T09:12:14.711Z,982.55
2019-04-20T09:13:08.420Z,982.62
2019-04-20T09:14:00.866Z,982.67
2019-04-20T09:14:59.443Z,982.64
2019-04-20T09:15:59.692Z,982.67
2019-04-20T09:17:02.863Z,982.66
2019-04-20T09:18:01.950Z,982.73
2019-04-20T09:19:05.525Z,982.87
2019-04-20T09:20:07.043Z,982.88
2019-04-20T09:21:04.383Z,982.85
2019-04-20T09:22:13.315Z,983.04
2019-04-20T09:23:19.843Z,983.13
2019-04-20T09:24:22.906Z,983.10
2019-04-20T09:25:27.921Z,983.02
2019-04-20T09:26:14.964Z,982.97
2019-04-20T09:27:08.687Z,982.94
2019-04-20T09:28:07.218Z,982.98
2019-04-20T09:29:12.604Z,983.05
2019-04-20T09:30:09.176Z,983.04
2019-04-20T09:31:15.298Z,983.13
2019-04-20T09:32:16.921Z,983.18
2019-04-20T09:33:20.725Z,983.27
2019-04-20T09:34:17.312Z,983.35
2019-04-20T09:35:20.994Z,983.37
2019-04-20T09:36:16.725Z,983.39
2019-04-20T09:37:21.450Z,983.40
2019-04-20T09:38:14.621Z,983.31
2019-04-20T09:39:08.568Z,983.26
2019-04-20T09:40:15.859Z,983.17
2019-04-20T09:41:22.404Z,983.11
2019-04-20T09:42:01.229Z,983.07
2019-04-20T09:42:58.345Z,983.07
2019-04-20T09:43:58.392Z,982.98
2019-04-20T09:45:02.415Z,982.85
2019-04-20T09:46:02.092Z,982.71
2019-04-20T09:47:01.351Z,982.61
2019-04-20T09:47:58.793Z,982.45
2019-04-20T09:49:02.825Z,982.32
2019-04-20T09:50:18.825Z,982.23
2019-04-20T09:51:22.028Z,982.23
2019-04-20T09:52:13.236Z,982.24
2019-04-20T09:53:17.349Z,982.25
2019-04-20T09:54:16.964Z,982.29
2019-04-20T09:55:10.758Z,982.26
2019-04-20T09:56:15.945Z,982.30
2019-04-20T09:57:19.160Z,982.32
2019-04-20T09:58:13.553Z,982.37
2019-04-20T09:59:16.841Z,982.34
2019-04-20T10:00:16.765Z,982.35
2019-04-20T10:01:13.511Z,982.31
2019-04-20T10:02:06.726Z,982.30
2019-04-20T10:03:14.452Z,982.30
2019-04-20T10:05:02.026Z,982.34
2019-04-20T10:06:01.841Z,982.28
2019-04-20T10:08:06.768Z,982.15
2019-04-20T10:09:05.419Z,982.07
2019-04-20T10:10:59.465Z,981.72
2019-04-20T10:11:50.525Z,981.53
2019-04-20T10:12:50.135Z,981.35
2019-04-20T10:13:50.128Z,981.24
2019-04-20T10:14:50.939Z,981.18
2019-04-20T10:15:50.093Z,981.10
2019-04-20T10:16:50.085Z,981.04
2019-04-20T10:17:50.082Z,981.09
2019-04-20T10:18:53.519Z,981.17
2019-04-20T10:19:51.308Z,981.13
2019-04-20T10:20:57.929Z,981.10
2019-04-20T10:23:00.533Z,981.23
2019-04-20T10:23:59.027Z,981.23
2019-04-20T10:25:54.331Z,981.34
2019-04-20T10:27:10.693Z,981.41
2019-04-20T10:28:57.490Z,981.44
2019-04-20T10:29:58.450Z,981.45
2019-04-20T10:31:55.758Z,981.44
2019-04-20T10:32:53.783Z,981.44
2019-04-20T10:34:44.292Z,981.44
2019-04-20T10:35:43.610Z,981.49
2019-04-20T10:37:36.076Z,981.43
2019-04-20T10:38:37.683Z,981.42
2019-04-20T10:40:44.987Z,981.40
2019-04-20T10:41:41.186Z,981.39
2019-04-20T10:43:23.960Z,981.33
2019-04-20T10:44:23.441Z,981.31
2019-04-20T10:46:17.328Z,981.33
2019-04-20T10:47:16.893Z,981.31
2019-04-20T10:49:29.220Z,981.29
2019-04-20T10:50:29.318Z,981.28
2019-04-20T10:52:23.867Z,981.28
2019-04-20T10:53:23.812Z,981.26
2019-04-20T10:55:16.590Z,981.21
2019-04-20T10:56:16.571Z,981.21
2019-04-20T10:58:11.445Z,981.22
2019-04-20T10:59:11.838Z,981.16
2019-04-20T11:00:11.203Z,981.19
2019-04-20T11:01:11.535Z,981.18
2019-04-20T11:02:12.065Z,981.18
2019-04-20T11:03:11.191Z,981.17
2019-04-20T11:04:12.453Z,981.17
2019-04-20T11:05:11.176Z,981.16
2019-04-20T11:06:11.181Z,981.14
2019-04-20T11:07:12.398Z,981.10
2019-04-20T11:08:12.643Z,981.07
2019-04-20T11:09:11.167Z,981.07
2019-04-20T11:10:19.808Z,981.10
2019-04-20T11:11:19.367Z,981.06
2019-04-20T11:12:12.387Z,981.06
2019-04-20T11:13:11.712Z,981.05
2019-04-20T11:14:18.981Z,981.10
2019-04-20T11:15:12.370Z,981.08
2019-04-20T11:16:12.518Z,981.02
2019-04-20T11:17:12.250Z,981.02
2019-04-20T11:18:11.377Z,980.99
2019-04-20T11:19:11.642Z,980.99
2019-04-20T11:20:11.122Z,980.92
2019-04-20T11:21:11.436Z,980.97
2019-04-20T11:22:12.290Z,980.96
2019-04-20T11:23:11.118Z,980.97
2019-04-20T11:24:12.257Z,980.96
2019-04-20T11:25:12.372Z,980.93
2019-04-20T11:26:11.111Z,980.94
2019-04-20T11:27:12.077Z,980.93
2019-04-20T11:28:12.263Z,980.96
2019-04-20T11:29:11.136Z,980.92
2019-04-20T11:30:12.030Z,980.91
2019-04-20T11:31:12.327Z,980.94
2019-04-20T11:32:13.440Z,980.87
2019-04-20T11:33:11.913Z,980.91
2019-04-20T11:34:14.919Z,980.89
2019-04-20T11:35:21.409Z,980.87
2019-04-20T11:36:11.066Z,980.92
2019-04-20T11:37:11.090Z,980.95
2019-04-20T11:38:13.764Z,980.82
2019-04-20T11:39:11.308Z,980.84
2019-04-20T11:40:11.037Z,980.83
2019-04-20T11:41:17.817Z,980.82
2019-04-20T11:42:11.875Z,980.81
2019-04-20T11:43:11.477Z,980.77
2019-04-20T11:44:11.693Z,980.79
2019-04-20T11:45:11.021Z,980.79
2019-04-20T11:46:12.241Z,980.75
2019-04-20T11:47:11.035Z,980.70
2019-04-20T11:48:11.609Z,980.69
2019-04-20T11:49:11.019Z,980.69
2019-04-20T11:50:11.423Z,980.75
2019-04-20T11:51:11.656Z,980.66
2019-04-20T11:52:10.983Z,980.66
2019-04-20T11:53:11.328Z,980.65
2019-04-20T11:54:12.480Z,980.64
2019-04-20T11:55:10.985Z,980.66
2019-04-20T11:56:15.924Z,980.65
2019-04-20T11:57:11.350Z,980.61
2019-04-20T11:58:12.062Z,980.57
2019-04-20T11:59:12.473Z,980.57
2019-04-20T12:00:11.109Z,980.54
2019-04-20T12:01:15.369Z,980.47
2019-04-20T12:02:19.492Z,980.45
2019-04-20T12:03:21.414Z,980.42
2019-04-20T12:04:24.822Z,980.44
2019-04-20T12:05:21.119Z,980.41
2019-04-20T12:06:10.965Z,980.45
2019-04-20T12:07:11.078Z,980.43
2019-04-20T12:08:11.179Z,980.41
2019-04-20T12:09:11.025Z,980.37
2019-04-20T12:10:16.969Z,980.39
2019-04-20T12:11:23.106Z,980.35
2019-04-20T12:12:22.336Z,980.34
2019-04-20T12:13:14.231Z,980.33
2019-04-20T12:14:10.897Z,980.35
2019-04-20T12:15:10.917Z,980.39
2019-04-20T12:16:11.839Z,980.38
2019-04-20T12:17:11.488Z,980.32
2019-04-20T12:18:11.629Z,980.28
2019-04-20T12:19:10.874Z,980.30
2019-04-20T12:20:10.921Z,980.31
2019-04-20T12:21:10.859Z,980.29
2019-04-20T12:22:11.874Z,980.34
2019-04-20T12:23:10.889Z,980.36
2019-04-20T12:24:12.140Z,980.31
2019-04-20T12:25:12.018Z,980.28
2019-04-20T12:26:10.897Z,980.26
2019-04-20T12:27:10.906Z,980.22
2019-04-20T12:28:11.561Z,980.23
2019-04-20T12:29:11.965Z,980.21
2019-04-20T12:30:12.000Z,980.22
2019-04-20T12:31:15.382Z,980.18
2019-04-20T12:32:10.845Z,980.17
2019-04-20T12:33:11.514Z,980.15
2019-04-20T12:34:10.805Z,980.13
2019-04-20T12:35:11.988Z,980.11
2019-04-20T12:36:12.132Z,980.13
2019-04-20T12:37:11.264Z,980.13
2019-04-20T12:38:10.790Z,980.04
2019-04-20T12:39:11.048Z,980.06
2019-04-20T12:40:12.064Z,980.03
2019-04-20T12:41:12.490Z,980.00
2019-04-20T12:42:11.224Z,980.03
2019-04-20T12:43:11.079Z,980.05
2019-04-20T12:44:12.044Z,980.06
2019-04-20T12:45:11.508Z,980.05
2019-04-20T12:46:14.818Z,980.04
2019-04-20T12:47:11.949Z,979.99
2019-04-20T12:48:11.444Z,980.01
2019-04-20T12:49:11.673Z,979.96
2019-04-20T12:50:11.848Z,979.94
2019-04-20T12:51:11.389Z,979.98
2019-04-20T12:52:10.727Z,979.95
2019-04-20T12:53:10.738Z,979.96
2019-04-20T12:54:10.918Z,979.88
2019-04-20T12:55:10.730Z,979.83
2019-04-20T12:56:10.730Z,979.84
2019-04-20T12:57:10.899Z,979.81
2019-04-20T12:58:10.705Z,979.81
2019-04-20T12:59:11.630Z,979.83
2019-04-20T13:00:11.927Z,979.82
2019-04-20T13:01:12.080Z,979.84
2019-04-20T13:02:11.379Z,979.79
2019-04-20T13:03:11.649Z,979.80
2019-04-20T13:04:12.047Z,979.80
2019-04-20T13:05:11.262Z,979.78
2019-04-20T13:06:12.006Z,979.83
2019-04-20T13:07:12.028Z,979.80
2019-04-20T13:08:13.835Z,979.82
2019-04-20T13:09:10.769Z,979.74
2019-04-20T13:10:11.579Z,979.71
2019-04-20T13:11:10.994Z,979.71
2019-04-20T13:12:12.272Z,979.72
2019-04-20T13:13:10.657Z,979.67
2019-04-20T13:14:10.633Z,979.73
2019-04-20T13:15:10.748Z,979.73
2019-04-20T13:16:10.624Z,979.70
2019-04-20T13:17:10.623Z,979.67
2019-04-20T13:18:11.539Z,979.66
2019-04-20T13:19:11.170Z,979.62
2019-04-20T13:20:11.926Z,979.59
2019-04-20T13:21:11.189Z,979.57
2019-04-20T13:22:10.868Z,979.59
2019-04-20T13:23:10.969Z,979.56
2019-04-20T13:24:11.379Z,979.59
2019-04-20T13:25:10.766Z,979.58
2019-04-20T13:26:12.120Z,979.52
2019-04-20T13:27:11.134Z,979.44
2019-04-20T13:28:10.747Z,979.53
2019-04-20T13:29:10.998Z,979.46
2019-04-20T13:30:11.146Z,979.46
2019-04-20T13:31:11.659Z,979.48
2019-04-20T13:32:11.727Z,979.39
2019-04-20T13:33:10.518Z,979.34
2019-04-20T13:34:10.509Z,979.33
2019-04-20T13:35:10.520Z,979.31
2019-04-20T13:36:10.503Z,979.32
2019-04-20T13:37:10.620Z,979.34
2019-04-20T13:38:10.485Z,979.32
2019-04-20T13:39:10.478Z,979.33
2019-04-20T13:40:11.144Z,979.35
2019-04-20T13:41:11.684Z,979.36
2019-04-20T13:42:18.669Z,979.32
2019-04-20T13:43:11.718Z,979.33
2019-04-20T13:44:11.559Z,979.32
2019-04-20T13:45:10.735Z,979.26
2019-04-20T13:46:11.159Z,979.27
2019-04-20T13:47:10.442Z,979.25